createdAt,value
2022-12-18T00:01:37.016Z,41.60
2022-12-18T00:04:31.006Z,41.60
2022-12-18T00:07:11.098Z,41.80
2022-12-18T00:09:57.951Z,41.80
2022-12-18T00:12:38.005Z,41.70
2022-12-18T00:15:24.986Z,41.50
2022-12-18T00:18:05.003Z,41.40
2022-12-18T00:20:51.981Z,41.50
2022-12-18T00:23:32.006Z,41.50
2022-12-18T00:26:22.973Z,41.60
2022-12-18T00:29:08.066Z,41.90
2022-12-18T00:31:57.018Z,41.70
2022-12-18T00:34:37.046Z,41.70
2022-12-18T00:37:23.949Z,41.70
2022-12-18T00:40:04.025Z,41.80
2022-12-18T00:43:02.965Z,41.80
2022-12-18T00:45:43.080Z,42.00
2022-12-18T00:48:29.958Z,41.80
2022-12-18T00:51:10.005Z,41.80
2022-12-18T00:53:56.961Z,41.80
2022-12-18T00:56:45.761Z,41.90
2022-12-18T00:59:36.991Z,41.90
2022-12-18T01:02:18.179Z,42.10
2022-12-18T01:05:04.979Z,42.10
2022-12-18T01:07:52.972Z,42.00
2022-12-18T01:10:40.288Z,42.00
2022-12-18T01:13:26.972Z,42.00
2022-12-18T01:16:07.091Z,42.00
2022-12-18T01:18:53.967Z,42.00
2022-12-18T01:21:41.960Z,41.90
2022-12-18T01:24:22.451Z,41.90
2022-12-18T01:27:08.975Z,42.00
2022-12-18T01:29:57.011Z,42.10
2022-12-18T01:32:44.966Z,42.10
2022-12-18T01:35:32.015Z,41.90
2022-12-18T01:38:12.965Z,42.00
2022-12-18T01:40:59.013Z,42.00
2022-12-18T01:44:15.968Z,41.90
2022-12-18T01:47:03.027Z,41.80
2022-12-18T01:49:42.951Z,41.50
2022-12-18T01:52:25.261Z,41.60
2022-12-18T01:55:13.950Z,41.60
2022-12-18T01:58:03.969Z,41.60
2022-12-18T02:00:44.056Z,41.60
2022-12-18T02:03:32.943Z,41.70
2022-12-18T02:06:36.026Z,41.80
2022-12-18T02:09:34.946Z,41.70
2022-12-18T02:12:32.955Z,41.80
2022-12-18T02:15:52.200Z,42.90
2022-12-18T02:18:44.958Z,41.90
2022-12-18T02:22:10.959Z,41.80
2022-12-18T02:25:30.967Z,41.90
2022-12-18T02:28:22.953Z,41.80
2022-12-18T02:31:09.073Z,42.00
2022-12-18T02:33:59.961Z,41.90
2022-12-18T02:36:54.980Z,41.80
2022-12-18T02:39:44.023Z,41.80
2022-12-18T02:42:24.953Z,41.80
2022-12-18T02:45:06.163Z,41.80
2022-12-18T02:47:59.966Z,41.80
2022-12-18T02:50:48.393Z,41.80
2022-12-18T02:53:50.942Z,41.80
2022-12-18T02:56:45.971Z,41.80
2022-12-18T02:59:40.937Z,42.80
2022-12-18T03:02:45.104Z,41.70
2022-12-18T03:05:27.015Z,41.80
2022-12-18T03:08:35.951Z,41.70
2022-12-18T03:11:44.973Z,41.90
2022-12-18T03:14:28.051Z,41.90
2022-12-18T03:17:21.962Z,41.80
2022-12-18T03:20:15.032Z,41.80
2022-12-18T03:23:00.967Z,41.90
2022-12-18T03:25:51.014Z,41.90
2022-12-18T03:28:37.979Z,41.90
2022-12-18T03:31:35.966Z,42.00
2022-12-18T03:34:29.948Z,42.00
2022-12-18T03:37:14.018Z,42.00
2022-12-18T03:40:00.955Z,41.90
2022-12-18T03:43:04.965Z,41.80
2022-12-18T03:46:02.030Z,41.70
2022-12-18T03:48:57.964Z,41.60
2022-12-18T03:51:57.982Z,41.50
2022-12-18T03:54:53.963Z,41.50
2022-12-18T03:57:35.754Z,41.40
2022-12-18T04:00:27.951Z,41.60
2022-12-18T04:03:14.883Z,41.60
2022-12-18T04:06:05.963Z,41.60
2022-12-18T04:08:54.994Z,41.70
2022-12-18T04:11:43.959Z,41.70
2022-12-18T04:14:31.029Z,41.80
2022-12-18T04:17:14.953Z,41.80
2022-12-18T04:19:55.440Z,41.70
2022-12-18T04:22:43.953Z,41.70
2022-12-18T04:25:26.450Z,41.60
2022-12-18T04:28:19.969Z,41.70
2022-12-18T04:31:00.024Z,41.70
2022-12-18T04:33:47.025Z,41.50
2022-12-18T04:36:26.971Z,42.60
2022-12-18T04:39:07.078Z,41.60
2022-12-18T04:41:54.959Z,41.60
2022-12-18T04:44:48.966Z,41.60
2022-12-18T04:47:35.974Z,41.70
2022-12-18T04:50:16.014Z,41.60
2022-12-18T04:53:02.986Z,41.50
2022-12-18T04:55:56.972Z,41.60
2022-12-18T04:58:38.720Z,41.60
2022-12-18T05:01:34.336Z,41.60
2022-12-18T05:04:28.959Z,41.60
2022-12-18T05:07:09.450Z,41.50
2022-12-18T05:09:55.958Z,41.50
2022-12-18T05:12:56.425Z,41.50
2022-12-18T05:15:47.073Z,41.50
2022-12-18T05:18:27.991Z,41.40
2022-12-18T05:21:14.975Z,42.40
2022-12-18T05:24:02.006Z,41.60
2022-12-18T05:26:41.974Z,41.50
2022-12-18T05:29:28.947Z,41.40
2022-12-18T05:32:09.018Z,41.50
2022-12-18T05:34:55.974Z,41.40
2022-12-18T05:37:42.490Z,41.40
2022-12-18T05:40:29.982Z,41.40
2022-12-18T05:43:10.058Z,41.20
2022-12-18T05:45:56.970Z,41.30
2022-12-18T05:48:37.021Z,41.40
2022-12-18T05:51:26.943Z,41.30
2022-12-18T05:54:20.953Z,41.20
2022-12-18T05:57:07.954Z,42.30
2022-12-18T05:59:54.962Z,41.30
2022-12-18T06:02:55.094Z,41.30
2022-12-18T06:05:42.988Z,41.30
2022-12-18T06:08:30.081Z,41.20
2022-12-18T06:11:09.966Z,41.20
2022-12-18T06:14:01.974Z,41.30
2022-12-18T06:16:42.011Z,41.30
2022-12-18T06:19:28.966Z,41.30
2022-12-18T06:22:09.005Z,41.20
2022-12-18T06:24:55.961Z,41.20
2022-12-18T06:27:42.949Z,41.30
2022-12-18T06:30:23.495Z,41.30
2022-12-18T06:33:09.947Z,41.30
2022-12-18T06:36:01.017Z,41.20
2022-12-18T06:38:43.226Z,41.20
2022-12-18T06:41:29.999Z,41.40
2022-12-18T06:44:11.000Z,41.30
2022-12-18T06:46:51.426Z,41.10
2022-12-18T06:49:37.944Z,41.90
2022-12-18T06:52:25.005Z,41.80
2022-12-18T06:55:19.946Z,40.70
2022-12-18T06:58:06.965Z,40.70
2022-12-18T07:00:48.044Z,40.60
2022-12-18T07:03:35.037Z,40.50
2022-12-18T07:06:22.007Z,40.40
2022-12-18T07:09:08.947Z,40.30
2022-12-18T07:11:55.984Z,40.20
2022-12-18T07:14:36.410Z,40.10
2022-12-18T07:17:22.961Z,40.30
2022-12-18T07:20:09.977Z,40.90
2022-12-18T07:22:56.970Z,40.00
2022-12-18T07:25:38.039Z,40.00
2022-12-18T07:28:24.940Z,39.90
2022-12-18T07:31:25.017Z,39.60
2022-12-18T07:34:05.413Z,39.40
2022-12-18T07:36:51.975Z,39.20
2022-12-18T07:39:39.009Z,39.20
2022-12-18T07:42:37.961Z,39.00
2022-12-18T07:45:24.945Z,38.90
2022-12-18T07:48:12.046Z,38.70
2022-12-18T07:50:52.949Z,38.60
2022-12-18T07:53:41.210Z,38.50
2022-12-18T07:56:29.389Z,38.50
2022-12-18T07:59:09.943Z,38.30
2022-12-18T08:01:57.096Z,38.30
2022-12-18T08:04:37.079Z,38.10
2022-12-18T08:07:23.933Z,38.10
2022-12-18T08:10:04.010Z,38.10
2022-12-18T08:12:50.947Z,37.90
2022-12-18T08:15:31.019Z,37.70
2022-12-18T08:18:17.958Z,37.40
2022-12-18T08:20:58.038Z,37.20
2022-12-18T08:23:45.486Z,37.00
2022-12-18T08:26:24.997Z,36.80
2022-12-18T08:29:11.946Z,36.60
2022-12-18T08:31:58.994Z,36.40
2022-12-18T08:34:39.449Z,36.30
2022-12-18T08:37:25.957Z,36.10
2022-12-18T08:40:07.314Z,36.00
2022-12-18T08:43:12.952Z,35.80
2022-12-18T08:45:53.622Z,35.80
2022-12-18T08:48:39.956Z,35.50
2022-12-18T08:51:28.004Z,35.50
2022-12-18T08:54:24.976Z,35.20
2022-12-18T08:57:11.953Z,35.10
2022-12-18T08:59:58.946Z,35.00
2022-12-18T09:02:39.752Z,35.40
2022-12-18T09:05:26.942Z,35.40
2022-12-18T09:08:14.016Z,35.30
2022-12-18T09:10:56.946Z,35.00
2022-12-18T09:13:37.656Z,34.80
2022-12-18T09:16:28.787Z,34.60
2022-12-18T09:19:17.933Z,34.50
2022-12-18T09:21:57.990Z,34.00
2022-12-18T09:24:44.927Z,34.20
2022-12-18T09:27:25.034Z,33.50
2022-12-18T09:30:12.953Z,33.40
2022-12-18T09:32:53.015Z,33.20
2022-12-18T09:35:39.966Z,33.10
2022-12-18T09:38:34.871Z,32.90
2022-12-18T09:41:44.966Z,32.70
2022-12-18T09:44:48.972Z,32.60
2022-12-18T09:47:35.516Z,32.50
2022-12-18T09:50:41.940Z,32.40
2022-12-18T09:53:27.573Z,32.30
2022-12-18T09:56:15.945Z,32.20
2022-12-18T09:59:07.966Z,32.20
2022-12-18T10:01:55.038Z,32.00
2022-12-18T10:04:35.644Z,32.00
2022-12-18T10:07:36.956Z,31.90
2022-12-18T10:10:24.337Z,31.90
2022-12-18T10:13:23.756Z,31.90
2022-12-18T10:16:14.035Z,32.00
2022-12-18T10:19:12.963Z,32.10
2022-12-18T10:22:17.977Z,32.00
2022-12-18T10:25:06.967Z,32.00
2022-12-18T10:27:53.963Z,32.00
2022-12-18T10:30:33.998Z,32.00
2022-12-18T10:33:26.948Z,32.10
2022-12-18T10:36:07.287Z,32.10
2022-12-18T10:38:53.963Z,32.10
2022-12-18T10:41:41.967Z,32.00
2022-12-18T10:44:30.973Z,32.10
2022-12-18T10:47:14.056Z,32.10
2022-12-18T10:50:02.940Z,32.10
2022-12-18T10:52:49.966Z,32.10
2022-12-18T10:55:45.948Z,32.20
2022-12-18T10:58:42.475Z,32.00
2022-12-18T11:01:29.044Z,32.10
2022-12-18T11:04:22.965Z,32.00
2022-12-18T11:07:09.371Z,32.00
2022-12-18T11:09:55.940Z,32.00
2022-12-18T11:12:36.432Z,32.00
2022-12-18T11:15:50.002Z,32.00
2022-12-18T11:18:42.319Z,32.00
2022-12-18T11:21:22.032Z,32.00
2022-12-18T11:24:08.964Z,32.10
2022-12-18T11:26:59.673Z,32.00
2022-12-18T11:29:47.938Z,32.00
2022-12-18T11:32:45.025Z,31.90
2022-12-18T11:35:47.956Z,32.00
2022-12-18T11:38:30.002Z,31.90
2022-12-18T11:42:04.942Z,32.00
2022-12-18T11:45:30.103Z,31.90
2022-12-18T11:48:28.965Z,31.80
2022-12-18T11:51:13.033Z,31.80
2022-12-18T11:53:59.954Z,31.80
2022-12-18T11:57:02.975Z,31.80
2022-12-18T12:00:02.955Z,31.70
2022-12-18T12:03:11.051Z,31.80
2022-12-18T12:06:02.053Z,31.70
2022-12-18T12:09:00.938Z,31.70
2022-12-18T12:12:00.191Z,31.70
2022-12-18T12:15:00.943Z,31.70
2022-12-18T12:18:12.959Z,31.60
2022-12-18T12:21:30.945Z,31.60
2022-12-18T12:24:38.268Z,31.60
2022-12-18T12:27:42.962Z,31.80
2022-12-18T12:31:01.951Z,31.60
2022-12-18T12:34:13.943Z,31.70
2022-12-18T12:37:03.972Z,31.60
2022-12-18T12:39:51.172Z,31.50
2022-12-18T12:43:09.975Z,31.60
2022-12-18T12:45:51.215Z,31.50
2022-12-18T12:49:00.966Z,31.60
2022-12-18T12:51:48.015Z,31.50
2022-12-18T12:54:36.958Z,31.50
2022-12-18T12:57:28.014Z,31.40
2022-12-18T13:00:24.981Z,31.40
2022-12-18T13:03:39.019Z,31.50
2022-12-18T13:06:44.526Z,31.60
2022-12-18T13:09:25.066Z,31.50
2022-12-18T13:12:36.983Z,31.60
2022-12-18T13:15:48.965Z,31.50
2022-12-18T13:18:30.674Z,31.40
2022-12-18T13:21:31.987Z,31.40
2022-12-18T13:24:24.721Z,31.50
2022-12-18T13:27:10.967Z,31.40
2022-12-18T13:30:04.944Z,31.40
2022-12-18T13:32:45.469Z,31.40
2022-12-18T13:35:31.963Z,31.40
2022-12-18T13:38:42.009Z,31.40
2022-12-18T13:41:24.958Z,31.40
2022-12-18T13:44:38.536Z,31.40
2022-12-18T13:47:47.000Z,31.40
2022-12-18T13:50:36.002Z,31.30
2022-12-18T13:53:29.405Z,31.40
2022-12-18T13:56:15.965Z,31.40
2022-12-18T13:59:58.978Z,31.40
2022-12-18T14:02:53.225Z,32.40
2022-12-18T14:05:35.983Z,31.20
2022-12-18T14:08:27.269Z,31.30
2022-12-18T14:11:08.929Z,31.20
2022-12-18T14:13:51.872Z,31.30
2022-12-18T14:16:38.999Z,31.20
2022-12-18T14:19:26.586Z,31.20
2022-12-18T14:22:05.951Z,31.20
2022-12-18T14:24:46.865Z,31.20
2022-12-18T14:27:38.947Z,31.20
2022-12-18T14:30:46.000Z,31.20
2022-12-18T14:33:28.471Z,31.20
2022-12-18T14:36:18.954Z,31.20
2022-12-18T14:39:00.212Z,31.20
2022-12-18T14:41:46.958Z,31.20
2022-12-18T14:44:34.564Z,31.20
2022-12-18T14:47:30.967Z,31.10
2022-12-18T14:50:22.154Z,31.20
2022-12-18T14:53:01.949Z,31.10
2022-12-18T14:55:54.954Z,31.10
2022-12-18T14:58:36.023Z,31.10
2022-12-18T15:01:46.033Z,31.10
2022-12-18T15:05:13.968Z,31.00
2022-12-18T15:08:02.962Z,32.10
2022-12-18T15:10:55.063Z,31.00
2022-12-18T15:13:42.377Z,31.20
2022-12-18T15:16:29.053Z,31.30
2022-12-18T15:19:16.481Z,31.30
2022-12-18T15:22:00.265Z,31.10
2022-12-18T15:24:44.550Z,31.20
2022-12-18T15:28:00.964Z,31.00
2022-12-18T15:31:02.832Z,31.00
2022-12-18T15:33:56.950Z,31.00
2022-12-18T15:36:43.958Z,31.00
2022-12-18T15:39:24.060Z,32.00
2022-12-18T15:42:29.952Z,31.00
2022-12-18T15:45:10.078Z,30.90
2022-12-18T15:47:56.963Z,30.90
2022-12-18T15:50:37.020Z,30.90
2022-12-18T15:53:23.954Z,31.00
2022-12-18T15:56:29.947Z,30.90
2022-12-18T15:59:22.975Z,30.90
2022-12-18T16:02:10.085Z,30.90
2022-12-18T16:04:58.958Z,30.90
2022-12-18T16:07:39.024Z,30.90
2022-12-18T16:10:25.970Z,30.90
2022-12-18T16:13:06.016Z,30.90
2022-12-18T16:15:52.992Z,30.90
2022-12-18T16:18:33.032Z,30.80
2022-12-18T16:21:19.958Z,31.80
2022-12-18T16:24:06.962Z,30.80
2022-12-18T16:26:53.955Z,30.80
2022-12-18T16:29:36.040Z,30.80
2022-12-18T16:32:25.958Z,30.80
2022-12-18T16:35:08.058Z,30.70
2022-12-18T16:37:54.965Z,30.80
2022-12-18T16:40:54.979Z,30.70
2022-12-18T16:43:42.316Z,30.80
2022-12-18T16:46:29.116Z,30.70
2022-12-18T16:49:10.040Z,30.80
2022-12-18T16:51:57.971Z,30.70
2022-12-18T16:54:38.485Z,30.70
2022-12-18T16:57:30.962Z,30.70
2022-12-18T17:00:18.963Z,30.70
2022-12-18T17:02:59.150Z,30.70
2022-12-18T17:05:51.495Z,30.70
2022-12-18T17:08:33.029Z,30.70
2022-12-18T17:11:19.976Z,30.70
2022-12-18T17:14:00.024Z,30.70
2022-12-18T17:16:54.040Z,30.70
2022-12-18T17:19:53.957Z,30.70
2022-12-18T17:22:41.106Z,30.70
2022-12-18T17:25:20.972Z,30.60
2022-12-18T17:28:01.438Z,30.70
2022-12-18T17:30:47.979Z,30.70
2022-12-18T17:33:28.443Z,30.70
2022-12-18T17:36:14.960Z,30.70
2022-12-18T17:39:03.954Z,30.70
2022-12-18T17:41:44.025Z,30.60
2022-12-18T17:44:30.962Z,30.60
2022-12-18T17:47:12.182Z,30.60
2022-12-18T17:49:58.958Z,30.70
2022-12-18T17:52:40.034Z,30.60
2022-12-18T17:55:26.963Z,30.60
2022-12-18T17:58:07.088Z,30.60
2022-12-18T18:00:53.970Z,30.70
2022-12-18T18:03:34.193Z,30.70
2022-12-18T18:06:21.957Z,30.70
2022-12-18T18:09:02.020Z,30.60
2022-12-18T18:12:07.957Z,30.70
2022-12-18T18:14:48.035Z,30.70
2022-12-18T18:17:34.965Z,31.40
2022-12-18T18:20:23.064Z,32.10
2022-12-18T18:23:03.453Z,32.00
2022-12-18T18:25:50.978Z,32.10
2022-12-18T18:28:39.974Z,32.50
2022-12-18T18:31:20.054Z,32.80
2022-12-18T18:34:07.971Z,34.10
2022-12-18T18:36:48.013Z,33.30
2022-12-18T18:39:36.950Z,34.60
2022-12-18T18:42:17.024Z,33.90
2022-12-18T18:45:03.949Z,34.10
2022-12-18T18:47:44.009Z,34.40
2022-12-18T18:50:30.969Z,34.70
2022-12-18T18:53:17.980Z,34.90
2022-12-18T18:59:19.982Z,35.00
2022-12-18T19:02:10.154Z,35.40
2022-12-18T19:04:50.428Z,35.60
2022-12-18T19:07:36.987Z,35.80
2022-12-18T19:10:17.442Z,35.90
2022-12-18T19:13:22.004Z,36.00
2022-12-18T19:16:08.457Z,36.10
2022-12-18T19:19:01.336Z,36.30
2022-12-18T19:21:50.017Z,36.40
2022-12-18T19:24:29.976Z,36.60
2022-12-18T19:27:10.955Z,36.80
2022-12-18T19:29:57.975Z,37.80
2022-12-18T19:32:44.984Z,36.90
2022-12-18T19:35:31.967Z,37.00
2022-12-18T19:38:12.481Z,37.00
2022-12-18T19:40:59.995Z,37.10
2022-12-18T19:43:47.032Z,37.30
2022-12-18T19:46:29.981Z,37.40
2022-12-18T19:49:18.329Z,37.40
2022-12-18T19:51:57.977Z,37.40
2022-12-18T19:54:45.015Z,37.50
2022-12-18T19:57:31.954Z,38.50
2022-12-18T20:00:18.535Z,37.60
2022-12-18T20:03:17.654Z,37.70
2022-12-18T20:06:14.086Z,37.80
2022-12-18T20:09:02.975Z,37.90
2022-12-18T20:11:43.119Z,38.10
2022-12-18T20:14:29.966Z,38.20
2022-12-18T20:17:10.035Z,38.30
2022-12-18T20:19:56.963Z,38.40
2022-12-18T20:22:37.054Z,38.50
2022-12-18T20:25:23.988Z,38.60
2022-12-18T20:28:04.032Z,38.80
2022-12-18T20:30:50.983Z,38.80
2022-12-18T20:33:31.021Z,37.90
2022-12-18T20:36:23.526Z,38.50
2022-12-18T20:39:12.302Z,37.80
2022-12-18T20:41:59.972Z,38.10
2022-12-18T20:44:40.030Z,38.30
2022-12-18T20:47:26.971Z,38.80
2022-12-18T20:50:07.076Z,38.90
2022-12-18T20:52:54.970Z,39.20
2022-12-18T20:55:35.016Z,39.40
2022-12-18T20:58:21.977Z,40.00
2022-12-18T21:01:27.074Z,40.20
2022-12-18T21:04:07.581Z,40.40
2022-12-18T21:06:59.109Z,40.30
2022-12-18T21:09:49.043Z,40.80
2022-12-18T21:12:45.343Z,41.10
2022-12-18T21:15:31.462Z,41.30
2022-12-18T21:18:17.979Z,41.50
2022-12-18T21:21:04.954Z,41.70
2022-12-18T21:23:45.031Z,42.10
2022-12-18T21:26:35.005Z,42.60
2022-12-18T21:29:26.170Z,42.90
2022-12-18T21:32:12.991Z,43.00
2022-12-18T21:34:59.948Z,43.00
2022-12-18T21:37:47.019Z,43.30
2022-12-18T21:40:26.963Z,43.50
2022-12-18T21:43:34.969Z,44.70
2022-12-18T21:46:15.042Z,43.80
2022-12-18T21:49:01.970Z,43.90
2022-12-18T21:51:49.953Z,43.80
2022-12-18T21:54:30.832Z,43.90
2022-12-18T21:57:19.977Z,44.00
2022-12-18T22:00:07.027Z,44.10
2022-12-18T22:02:47.266Z,44.20
2022-12-18T22:05:34.010Z,44.40
2022-12-18T22:08:13.986Z,44.60
2022-12-18T22:10:54.451Z,44.70
2022-12-18T22:13:40.958Z,44.90
2022-12-18T22:16:28.132Z,45.00
2022-12-18T22:19:07.962Z,45.30
2022-12-18T22:21:56.048Z,45.60
2022-12-18T22:24:35.948Z,45.60
2022-12-18T22:27:22.942Z,45.60
2022-12-18T22:30:12.973Z,45.80
2022-12-18T22:32:53.499Z,45.90
2022-12-18T22:35:39.964Z,45.90
2022-12-18T22:38:20.477Z,46.00
2022-12-18T22:41:07.979Z,46.20
2022-12-18T22:43:55.012Z,46.40
2022-12-18T22:46:40.027Z,46.50
2022-12-18T22:49:29.040Z,46.50
2022-12-18T22:52:10.975Z,46.60
2022-12-18T22:55:12.966Z,46.80
2022-12-18T22:58:06.968Z,47.00
2022-12-18T23:00:54.066Z,47.20
2022-12-18T23:03:34.003Z,47.20
2022-12-18T23:06:14.541Z,47.40
2022-12-18T23:09:01.964Z,47.60
2022-12-18T23:11:49.050Z,47.70
2022-12-18T23:14:28.953Z,47.80
2022-12-18T23:17:15.977Z,47.80
2022-12-18T23:19:56.019Z,48.00
2022-12-18T23:22:42.958Z,48.10
2022-12-18T23:25:23.052Z,48.20
2022-12-18T23:28:09.974Z,48.30
2022-12-18T23:30:50.128Z,48.40
2022-12-18T23:33:36.975Z,48.60
2022-12-18T23:36:24.955Z,48.70
2022-12-18T23:39:15.435Z,48.70
2022-12-18T23:42:08.993Z,48.70
2022-12-18T23:44:55.962Z,48.70
2022-12-18T23:47:37.078Z,49.00
2022-12-18T23:50:28.892Z,49.00
2022-12-18T23:53:10.966Z,49.10
2022-12-18T23:55:58.957Z,49.20
2022-12-18T23:58:47.088Z,49.40
